This is the latest recevied weather packets stored in our database for station/object K1FFK-1. If no packets are shown the sender has not sent any weather packets the latest 10 day(s).
| Time | Temp. | Humidity | Pressure | Rain* | Wind** | Luminosity | Snow |
|---|---|---|---|---|---|---|---|
| 1777997494 | 17.22° C | 57% | 1014.2 hPa | 0 mm | - | - | - |
| 1777996894 | 18.33° C | 56% | 1014.1 hPa | 0 mm | - | - | - |
| 1777996294 | 18.33° C | 58% | 1014.3 hPa | 0 mm | - | - | - |
| 1777995694 | 18.33° C | 56% | 1014.3 hPa | 0 mm | - | - | - |
| 1777995093 | 17.78° C | 58% | 1014.3 hPa | 0 mm | - | - | - |
| 1777994494 | 17.78° C | 59% | 1014.6 hPa | 0 mm | - | - | - |
| 1777993893 | 16.67° C | 61% | 1014.5 hPa | 0 mm | - | - | - |
| 1777993294 | 16.11° C | 60% | 1014.5 hPa | 0 mm | - | - | - |
| 1777992694 | 16.11° C | 61% | 1014.7 hPa | 0 mm | - | - | - |
| 1777992094 | 15.56° C | 63% | 1014.8 hPa | 0 mm | - | - | - |
| 1777991494 | 15.56° C | 64% | 1014.6 hPa | 0 mm | - | - | - |
| 1777990894 | 15° C | 64% | 1014.6 hPa | 0 mm | - | - | - |
| 1777989694 | 14.44° C | 66% | 1014.5 hPa | 0 mm | - | - | - |
| 1777989094 | 13.89° C | 67% | 1014.5 hPa | 0 mm | - | - | - |
| 1777988494 | 13.33° C | 69% | 1014.5 hPa | 0 mm | - | - | - |
| 1777987893 | 13.33° C | 69% | 1014.5 hPa | 0 mm | - | - | - |
| 1777987294 | 12.78° C | 69% | 1014.2 hPa | 0 mm | - | - | - |
| 1777986839 | 12.78° C | 69% | 1014.2 hPa | 0 mm | - | - | - |
| 1777986694 | 12.78° C | 69% | 1014.2 hPa | 0 mm | - | - | - |
| 1777986093 | 12.22° C | 72% | 1014.2 hPa | 0 mm | - | - | - |
| 1777985494 | 12.22° C | 72% | 1014.2 hPa | 0 mm | - | - | - |
| 1777984894 | 12.22° C | 72% | 1013.8 hPa | 0 mm | - | - | - |
| 1777984294 | 12.22° C | 72% | 1013.8 hPa | 0 mm | - | - | - |
| 1777983693 | 12.22° C | 72% | 1013.9 hPa | 0 mm | - | - | - |
| 1777983093 | 12.22° C | 72% | 1013.8 hPa | 0 mm | - | - | - |
* Rain latest hour (hover to see other rain measurements)
** Current wind speed in m/s (hover to see current wind gust speed)